Time;durP1;ratioP1;P1;durP2;ratioP2;P2;SDS_P1;SDS_P2;PMS_P1;PMS_P2;Temp;Humidity;BMP_temperature;BMP_pressure;BME280_temperature;BME280_humidity;BME280_pressure;Samples;Min_cycle;Max_cycle;Signal;HPM_P1;HPM_P2
2022/01/12 00:01:22;;;;;;;11.48;7.10;;;;;;;;;;5017616;28;20200;-67
2022/01/12 00:04:08;;;;;;;13.52;5.97;;;;;;;;;;5026464;28;20087;-69
2022/01/12 00:06:54;;;;;;;12.07;6.90;;;;;;;;;;5011889;28;20108;-67
2022/01/12 00:09:39;;;;;;;11.88;6.93;;;;;;;;;;5013209;28;20042;-68
2022/01/12 00:12:26;;;;;;;9.10;5.43;;;;;;;;;;5024125;28;20418;-67
2022/01/12 00:15:11;;;;;;;11.20;6.55;;;;;;;;;;5041757;28;20567;-69
2022/01/12 00:17:56;;;;;;;12.23;6.75;;;;;;;;;;5017313;28;20464;-69
2022/01/12 00:20:42;;;;;;;12.52;6.32;;;;;;;;;;5010978;28;20029;-78
2022/01/12 00:23:28;;;;;;;11.52;7.15;;;;;;;;;;5013860;28;20037;-78
2022/01/12 00:26:36;;;;;;;11.45;7.38;;;;;;;;;;5014753;28;20045;-76
2022/01/12 00:35:26;;;;;;;8.95;4.97;;;;;;;;;;5022959;28;20033;-70
2022/01/12 00:38:12;;;;;;;14.00;7.30;;;;;;;;;;5005021;28;20053;-62
2022/01/12 00:40:59;;;;;;;13.68;6.65;;;;;;;;;;5005902;28;20067;-61
2022/01/12 00:43:47;;;;;;;10.05;6.45;;;;;;;;;;5029152;28;20041;-66
2022/01/12 00:46:32;;;;;;;10.75;6.38;;;;;;;;;;5017523;28;20524;-61
2022/01/12 00:49:18;;;;;;;11.30;5.57;;;;;;;;;;5028597;28;20033;-60
2022/01/12 00:52:03;;;;;;;10.63;6.43;;;;;;;;;;5037790;28;20032;-63
2022/01/12 00:54:49;;;;;;;9.57;5.65;;;;;;;;;;5017889;28;20034;-68
2022/01/12 00:57:34;;;;;;;10.48;5.93;;;;;;;;;;5023841;28;20209;-64
2022/01/12 01:00:20;;;;;;;9.68;5.75;;;;;;;;;;5029672;28;20455;-62
2022/01/12 01:03:05;;;;;;;10.35;6.47;;;;;;;;;;5025210;28;20034;-63
2022/01/12 01:05:51;;;;;;;11.30;6.70;;;;;;;;;;5013982;28;20064;-64
2022/01/12 01:08:36;;;;;;;14.75;6.70;;;;;;;;;;5039674;28;20073;-62
2022/01/12 01:11:23;;;;;;;11.45;6.18;;;;;;;;;;5030205;28;20072;-62
2022/01/12 01:14:22;;;;;;;9.30;5.40;;;;;;;;;;5021715;28;20459;-76
2022/01/12 01:26:11;;;;;;;10.27;6.50;;;;;;;;;;4992486;28;20082;-66
2022/01/12 01:28:57;;;;;;;9.65;5.75;;;;;;;;;;5003156;28;20417;-66
2022/01/12 01:31:44;;;;;;;11.18;6.65;;;;;;;;;;4999518;28;20041;-68
2022/01/12 01:34:31;;;;;;;10.95;6.10;;;;;;;;;;5006338;28;20052;-71
2022/01/12 01:37:16;;;;;;;13.45;6.70;;;;;;;;;;5017046;28;20129;-75
2022/01/12 01:40:02;;;;;;;11.10;6.15;;;;;;;;;;5016354;28;20361;-72
2022/01/12 01:54:56;;;;;;;10.02;6.30;;;;;;;;;;5010402;28;20029;-75
2022/01/12 01:57:42;;;;;;;11.82;6.50;;;;;;;;;;5028758;28;20033;-75
2022/01/12 02:00:28;;;;;;;11.38;6.95;;;;;;;;;;5018144;28;20329;-77
2022/01/12 02:03:13;;;;;;;12.50;7.28;;;;;;;;;;5019878;28;20116;-76
2022/01/12 02:06:04;;;;;;;11.68;6.93;;;;;;;;;;5026945;28;20427;-76
2022/01/12 02:08:50;;;;;;;12.32;6.30;;;;;;;;;;5023111;28;20036;-76
2022/01/12 02:11:35;;;;;;;10.35;6.18;;;;;;;;;;5009573;28;20022;-68
2022/01/12 02:14:20;;;;;;;8.85;5.28;;;;;;;;;;5050808;28;20410;-68
2022/01/12 02:17:13;;;;;;;13.80;6.45;;;;;;;;;;5038619;28;20088;-68
2022/01/12 02:40:50;;;;;;;10.63;6.82;;;;;;;;;;5031788;28;20037;-62
2022/01/12 02:55:33;;;;;;;10.60;5.95;;;;;;;;;;5024672;28;20033;-69
2022/01/12 02:58:18;;;;;;;13.07;6.43;;;;;;;;;;5031814;28;20031;-69
2022/01/12 03:04:10;;;;;;;11.45;6.60;;;;;;;;;;5015657;28;20107;-77
2022/01/12 03:07:04;;;;;;;9.63;5.28;;;;;;;;;;5029423;28;20021;-72
2022/01/12 03:09:49;;;;;;;10.43;6.22;;;;;;;;;;5006634;28;20709;-72
2022/01/12 03:12:35;;;;;;;13.25;7.93;;;;;;;;;;5037860;28;20021;-72
2022/01/12 03:15:21;;;;;;;10.05;5.85;;;;;;;;;;5034499;28;20109;-71
2022/01/12 03:18:06;;;;;;;11.10;6.32;;;;;;;;;;4996801;28;20108;-75
2022/01/12 03:20:51;;;;;;;10.77;6.15;;;;;;;;;;5028524;28;20033;-70
2022/01/12 03:23:37;;;;;;;12.98;5.82;;;;;;;;;;5032753;28;20037;-73
2022/01/12 03:26:23;;;;;;;11.25;6.10;;;;;;;;;;5020509;28;20057;-72
2022/01/12 03:29:08;;;;;;;11.13;7.28;;;;;;;;;;5007765;28;20041;-73
2022/01/12 03:31:56;;;;;;;12.48;7.13;;;;;;;;;;5006270;28;20059;-78
2022/01/12 03:34:43;;;;;;;9.85;6.00;;;;;;;;;;5010863;28;20076;-72
2022/01/12 03:37:41;;;;;;;11.75;6.65;;;;;;;;;;5012552;28;20032;-72
2022/01/12 03:40:26;;;;;;;11.45;4.97;;;;;;;;;;4994068;28;20039;-70
2022/01/12 03:43:11;;;;;;;11.68;6.95;;;;;;;;;;5014109;28;20037;-79
2022/01/12 03:45:58;;;;;;;11.68;6.68;;;;;;;;;;5009126;28;20479;-78
2022/01/12 03:48:43;;;;;;;11.15;6.38;;;;;;;;;;5027651;28;20083;-78
2022/01/12 03:51:28;;;;;;;10.50;6.43;;;;;;;;;;5013926;28;20069;-77
2022/01/12 03:54:14;;;;;;;11.10;7.70;;;;;;;;;;5016013;28;20467;-78
2022/01/12 03:57:00;;;;;;;10.10;6.80;;;;;;;;;;5025447;28;20029;-76
2022/01/12 03:59:45;;;;;;;11.30;6.90;;;;;;;;;;5015245;28;20072;-71
2022/01/12 04:02:33;;;;;;;13.82;7.45;;;;;;;;;;5028458;28;20044;-72
2022/01/12 04:08:32;;;;;;;12.18;7.45;;;;;;;;;;5005016;28;20117;-69
2022/01/12 04:11:18;;;;;;;9.90;6.47;;;;;;;;;;5015881;28;20487;-71
2022/01/12 04:14:04;;;;;;;13.55;7.15;;;;;;;;;;5023488;28;20795;-70
2022/01/12 04:16:49;;;;;;;12.43;7.40;;;;;;;;;;5025153;28;20135;-69
2022/01/12 04:19:36;;;;;;;12.02;6.95;;;;;;;;;;5042930;28;20492;-67
2022/01/12 04:25:26;;;;;;;13.82;7.65;;;;;;;;;;5012429;28;20022;-68
2022/01/12 04:28:11;;;;;;;10.50;6.60;;;;;;;;;;4997496;28;20530;-68
2022/01/12 04:30:57;;;;;;;13.10;7.35;;;;;;;;;;5021662;28;20031;-68
2022/01/12 04:33:43;;;;;;;14.13;7.30;;;;;;;;;;5013508;28;20477;-67
2022/01/12 04:36:28;;;;;;;13.60;7.60;;;;;;;;;;5000061;28;20510;-71
2022/01/12 04:39:13;;;;;;;10.57;6.88;;;;;;;;;;5025053;28;20033;-68
2022/01/12 04:41:59;;;;;;;12.13;7.07;;;;;;;;;;5020954;28;20416;-69
2022/01/12 04:44:47;;;;;;;11.20;7.43;;;;;;;;;;5031539;28;20115;-71
2022/01/12 04:50:37;;;;;;;13.23;6.93;;;;;;;;;;5015330;28;20022;-69
2022/01/12 04:53:23;;;;;;;15.43;7.30;;;;;;;;;;5021499;28;20029;-77
2022/01/12 04:56:08;;;;;;;12.18;8.05;;;;;;;;;;5023988;28;20465;-66
2022/01/12 04:58:54;;;;;;;14.80;8.63;;;;;;;;;;5003242;28;20493;-67
2022/01/12 05:01:48;;;;;;;16.30;8.60;;;;;;;;;;5026585;28;20112;-69
2022/01/12 05:07:46;;;;;;;13.07;7.38;;;;;;;;;;5014602;28;20033;-67
2022/01/12 05:13:36;;;;;;;12.50;7.50;;;;;;;;;;5028014;28;20029;-67
2022/01/12 05:16:22;;;;;;;15.10;7.80;;;;;;;;;;5016182;28;20437;-70
2022/01/12 05:19:07;;;;;;;14.23;7.90;;;;;;;;;;5016352;28;20056;-68
2022/01/12 05:21:53;;;;;;;14.48;7.68;;;;;;;;;;5031905;28;20052;-68
2022/01/12 05:24:38;;;;;;;16.55;8.05;;;;;;;;;;5033454;28;20033;-68
2022/01/12 05:27:23;;;;;;;13.30;7.95;;;;;;;;;;5021747;28;20511;-67
2022/01/12 05:30:09;;;;;;;14.82;8.68;;;;;;;;;;5037602;28;20044;-61
2022/01/12 05:32:54;;;;;;;12.77;8.23;;;;;;;;;;5028150;28;20021;-68
2022/01/12 05:35:41;;;;;;;13.35;8.05;;;;;;;;;;5030303;28;20072;-70
2022/01/12 05:38:27;;;;;;;13.13;8.38;;;;;;;;;;5033257;28;20040;-66
2022/01/12 05:41:12;;;;;;;13.82;8.32;;;;;;;;;;5008392;28;20057;-70
2022/01/12 05:43:58;;;;;;;12.60;8.25;;;;;;;;;;5032158;28;20029;-68
2022/01/12 05:46:44;;;;;;;13.77;8.38;;;;;;;;;;5015723;28;20032;-66
2022/01/12 05:49:36;;;;;;;12.63;8.85;;;;;;;;;;5018049;28;20029;-66
2022/01/12 05:52:21;;;;;;;16.75;8.77;;;;;;;;;;5016279;28;20045;-69
2022/01/12 05:55:07;;;;;;;13.50;7.53;;;;;;;;;;5023207;28;20115;-68
2022/01/12 05:57:53;;;;;;;16.92;9.43;;;;;;;;;;5015970;28;20034;-68
2022/01/12 06:00:38;;;;;;;13.77;8.75;;;;;;;;;;5031217;28;20946;-67
2022/01/12 06:03:23;;;;;;;15.80;9.10;;;;;;;;;;5014284;28;20083;-67
2022/01/12 06:06:09;;;;;;;13.93;8.00;;;;;;;;;;5020763;28;20029;-62
2022/01/12 06:08:54;;;;;;;12.80;8.30;;;;;;;;;;5007526;28;20048;-63
2022/01/12 06:11:39;;;;;;;11.52;7.40;;;;;;;;;;5019026;28;20095;-60
2022/01/12 06:14:24;;;;;;;15.85;9.85;;;;;;;;;;5013477;28;20044;-62
2022/01/12 06:17:10;;;;;;;17.73;9.45;;;;;;;;;;5017961;28;20091;-61
2022/01/12 06:19:55;;;;;;;12.80;8.15;;;;;;;;;;5024981;28;20045;-63
2022/01/12 06:22:41;;;;;;;17.92;10.02;;;;;;;;;;5032419;28;20416;-70
2022/01/12 06:25:26;;;;;;;17.23;10.02;;;;;;;;;;5040671;28;20096;-63
2022/01/12 06:31:17;;;;;;;18.92;9.85;;;;;;;;;;5010730;28;20041;-67
2022/01/12 06:34:02;;;;;;;17.55;9.68;;;;;;;;;;5021641;28;20032;-63
2022/01/12 06:36:48;;;;;;;17.10;8.88;;;;;;;;;;5011605;28;20454;-63
2022/01/12 06:39:33;;;;;;;18.23;11.40;;;;;;;;;;5019294;28;20029;-63
2022/01/12 06:42:18;;;;;;;16.20;10.68;;;;;;;;;;5027362;28;20087;-62
2022/01/12 06:45:04;;;;;;;16.95;10.35;;;;;;;;;;4998528;28;20262;-67
2022/01/12 06:47:49;;;;;;;17.40;11.10;;;;;;;;;;5004819;28;20121;-63
2022/01/12 06:50:35;;;;;;;16.98;10.43;;;;;;;;;;5007544;28;20038;-63
2022/01/12 06:53:20;;;;;;;17.40;10.10;;;;;;;;;;5036497;28;20032;-62
2022/01/12 06:56:06;;;;;;;17.63;9.65;;;;;;;;;;5016315;28;20022;-64
2022/01/12 06:58:51;;;;;;;16.20;10.23;;;;;;;;;;4996382;28;20041;-62
2022/01/12 07:01:36;;;;;;;16.38;10.90;;;;;;;;;;4998058;28;20057;-67
2022/01/12 07:04:22;;;;;;;16.33;9.40;;;;;;;;;;5010544;28;20496;-63
2022/01/12 07:07:07;;;;;;;16.42;9.95;;;;;;;;;;5000566;28;20034;-77
2022/01/12 07:09:53;;;;;;;19.10;11.05;;;;;;;;;;5034700;28;20086;-77
2022/01/12 07:12:38;;;;;;;17.50;9.48;;;;;;;;;;5008305;28;20030;-77
2022/01/12 07:15:23;;;;;;;18.58;11.52;;;;;;;;;;5010805;28;20060;-76
2022/01/12 07:18:08;;;;;;;16.80;10.82;;;;;;;;;;5028962;28;20029;-77
2022/01/12 07:20:54;;;;;;;17.77;11.32;;;;;;;;;;5030860;28;20401;-72
2022/01/12 07:23:39;;;;;;;19.23;11.88;;;;;;;;;;5010958;28;20018;-69
2022/01/12 07:26:24;;;;;;;21.02;11.82;;;;;;;;;;5037526;28;20618;-68
2022/01/12 07:29:11;;;;;;;21.02;11.18;;;;;;;;;;5031504;28;20041;-69
2022/01/12 07:31:56;;;;;;;20.05;12.13;;;;;;;;;;5015483;28;20436;-69
2022/01/12 07:34:41;;;;;;;23.48;12.82;;;;;;;;;;5003590;28;20392;-69
2022/01/12 07:37:26;;;;;;;20.90;13.35;;;;;;;;;;5011517;28;20193;-70
2022/01/12 07:40:12;;;;;;;21.58;11.60;;;;;;;;;;5021229;28;20067;-69
2022/01/12 07:42:57;;;;;;;21.42;11.80;;;;;;;;;;5016701;28;20037;-68
2022/01/12 07:45:43;;;;;;;21.55;11.80;;;;;;;;;;4992318;28;20126;-70
2022/01/12 07:48:28;;;;;;;23.38;12.65;;;;;;;;;;5006383;28;20075;-68
2022/01/12 07:51:14;;;;;;;19.08;11.32;;;;;;;;;;5023448;28;20037;-69
2022/01/12 07:53:59;;;;;;;23.02;13.80;;;;;;;;;;5013687;28;20108;-71
2022/01/12 07:56:44;;;;;;;22.20;13.02;;;;;;;;;;5011657;28;20475;-70
2022/01/12 07:59:29;;;;;;;22.42;12.90;;;;;;;;;;5013963;28;20021;-66
2022/01/12 08:02:15;;;;;;;21.98;14.13;;;;;;;;;;5033006;28;20031;-73
2022/01/12 08:05:00;;;;;;;24.13;13.30;;;;;;;;;;5005048;28;20075;-74
2022/01/12 08:07:47;;;;;;;20.80;12.80;;;;;;;;;;5019432;28;20526;-75
2022/01/12 08:10:32;;;;;;;23.13;14.73;;;;;;;;;;5008560;28;20075;-74
2022/01/12 08:13:17;;;;;;;21.48;13.98;;;;;;;;;;5016716;28;20029;-74
2022/01/12 08:16:03;;;;;;;24.65;15.68;;;;;;;;;;5026159;28;20033;-62
2022/01/12 08:18:48;;;;;;;21.40;15.18;;;;;;;;;;5020649;28;20030;-63
2022/01/12 08:21:33;;;;;;;22.40;14.60;;;;;;;;;;5032032;28;20052;-64
2022/01/12 08:24:19;;;;;;;21.95;14.93;;;;;;;;;;5026235;28;20032;-62
2022/01/12 08:27:04;;;;;;;21.80;15.15;;;;;;;;;;5022126;28;20029;-68
2022/01/12 08:29:51;;;;;;;21.60;14.57;;;;;;;;;;5016859;28;20029;-68
2022/01/12 08:32:36;;;;;;;21.48;15.38;;;;;;;;;;5005608;28;20263;-67
2022/01/12 08:35:21;;;;;;;21.35;14.05;;;;;;;;;;5028534;28;20041;-70
2022/01/12 08:38:07;;;;;;;27.02;16.50;;;;;;;;;;5010983;28;20353;-72
2022/01/12 08:40:52;;;;;;;22.83;14.95;;;;;;;;;;5016835;28;20025;-71
2022/01/12 08:43:38;;;;;;;23.65;15.05;;;;;;;;;;5013489;28;20022;-78
2022/01/12 08:46:23;;;;;;;24.52;15.27;;;;;;;;;;5005720;28;20030;-74
2022/01/12 08:49:08;;;;;;;24.85;15.93;;;;;;;;;;5001254;28;20084;-71
2022/01/12 08:51:54;;;;;;;23.13;14.13;;;;;;;;;;4999848;28;20337;-64
2022/01/12 08:54:39;;;;;;;21.77;14.13;;;;;;;;;;4994552;28;20129;-62
2022/01/12 08:57:24;;;;;;;19.50;14.25;;;;;;;;;;4992770;28;20519;-71
2022/01/12 09:00:10;;;;;;;25.27;15.02;;;;;;;;;;5013880;28;20460;-68
2022/01/12 09:02:56;;;;;;;25.40;15.48;;;;;;;;;;5011557;28;20032;-71
2022/01/12 09:05:41;;;;;;;23.52;15.25;;;;;;;;;;5016804;28;20167;-71
2022/01/12 09:08:26;;;;;;;25.02;14.43;;;;;;;;;;5018615;28;20354;-71
2022/01/12 09:11:12;;;;;;;20.40;13.95;;;;;;;;;;5018188;28;20029;-65
2022/01/12 09:13:57;;;;;;;22.98;14.73;;;;;;;;;;5017312;28;20029;-67
2022/01/12 09:16:42;;;;;;;21.33;15.25;;;;;;;;;;5033059;28;20021;-67
2022/01/12 09:19:28;;;;;;;19.17;13.30;;;;;;;;;;5012337;28;20033;-67
2022/01/12 09:22:14;;;;;;;20.90;14.73;;;;;;;;;;5028215;28;20037;-65
2022/01/12 09:24:59;;;;;;;21.60;14.68;;;;;;;;;;5019225;28;20021;-67
2022/01/12 09:27:44;;;;;;;20.83;13.73;;;;;;;;;;5028596;28;20022;-66
2022/01/12 09:30:29;;;;;;;23.88;15.48;;;;;;;;;;5029439;28;20040;-71
2022/01/12 09:33:15;;;;;;;21.95;16.17;;;;;;;;;;5042460;28;20086;-64
2022/01/12 09:36:00;;;;;;;20.08;13.80;;;;;;;;;;5008506;28;20035;-62
2022/01/12 09:38:45;;;;;;;18.65;12.85;;;;;;;;;;5000366;28;20030;-67
2022/01/12 09:41:31;;;;;;;18.88;13.32;;;;;;;;;;5020990;28;20033;-66
2022/01/12 09:44:17;;;;;;;20.45;13.07;;;;;;;;;;5022283;28;20033;-66
2022/01/12 09:47:03;;;;;;;24.27;14.80;;;;;;;;;;5017013;28;20064;-63
2022/01/12 09:49:48;;;;;;;20.67;13.27;;;;;;;;;;5020077;28;20037;-64
2022/01/12 09:52:34;;;;;;;21.02;12.10;;;;;;;;;;5013094;28;20380;-63
2022/01/12 09:55:20;;;;;;;19.52;13.02;;;;;;;;;;5020735;28;20037;-62
2022/01/12 09:58:05;;;;;;;20.27;13.25;;;;;;;;;;5027060;28;20033;-61
2022/01/12 10:00:58;;;;;;;20.35;13.35;;;;;;;;;;5016027;28;20565;-61
2022/01/12 10:03:43;;;;;;;20.77;13.43;;;;;;;;;;5033308;28;20484;-64
2022/01/12 10:06:28;;;;;;;20.85;13.05;;;;;;;;;;5016727;28;20087;-65
2022/01/12 10:09:14;;;;;;;19.40;12.63;;;;;;;;;;5013008;28;20537;-69
2022/01/12 10:12:01;;;;;;;18.98;13.38;;;;;;;;;;5030657;28;20030;-70
2022/01/12 10:14:46;;;;;;;20.80;14.00;;;;;;;;;;5016907;28;20304;-69
2022/01/12 10:17:31;;;;;;;21.40;13.57;;;;;;;;;;5012447;28;20045;-73
2022/01/12 10:20:18;;;;;;;20.33;14.10;;;;;;;;;;5019136;28;20114;-70
2022/01/12 10:23:07;;;;;;;21.70;13.20;;;;;;;;;;5037490;28;20036;-69
2022/01/12 10:25:53;;;;;;;;;;;;;;;;;;5026784;28;20472;-66
2022/01/12 10:28:38;;;;;;;18.17;11.77;;;;;;;;;;5023816;28;19927;-74
2022/01/12 10:31:23;;;;;;;21.48;13.93;;;;;;;;;;5024153;28;20480;-72
2022/01/12 10:34:08;;;;;;;18.80;12.20;;;;;;;;;;5022314;28;20029;-69
2022/01/12 10:36:55;;;;;;;17.05;11.57;;;;;;;;;;5017087;28;20792;-73
2022/01/12 10:39:42;;;;;;;17.92;13.32;;;;;;;;;;5004841;28;20029;-74
2022/01/12 10:42:28;;;;;;;17.40;11.48;;;;;;;;;;5031235;28;20036;-77
2022/01/12 10:45:13;;;;;;;19.05;13.02;;;;;;;;;;5027963;28;20072;-64
2022/01/12 10:47:59;;;;;;;19.05;11.70;;;;;;;;;;5012112;28;20037;-79
2022/01/12 10:50:58;;;;;;;18.23;11.90;;;;;;;;;;5017133;28;20121;-78
2022/01/12 10:53:43;;;;;;;15.43;9.97;;;;;;;;;;5020514;28;20426;-75
2022/01/12 10:56:29;;;;;;;17.63;11.15;;;;;;;;;;5030166;28;20119;-77
2022/01/12 10:59:18;;;;;;;16.50;11.15;;;;;;;;;;5024311;28;20052;-76
2022/01/12 11:02:03;;;;;;;17.38;11.80;;;;;;;;;;5014109;28;20033;-73
2022/01/12 11:04:49;;;;;;;16.75;11.90;;;;;;;;;;5034886;28;20453;-64
2022/01/12 11:07:34;;;;;;;21.98;12.18;;;;;;;;;;5021008;28;20064;-63
2022/01/12 11:10:21;;;;;;;19.45;12.50;;;;;;;;;;5033070;28;20037;-65
2022/01/12 11:13:06;;;;;;;19.30;13.02;;;;;;;;;;5028633;28;20034;-66
2022/01/12 11:15:52;;;;;;;23.05;14.68;;;;;;;;;;5015435;28;20116;-68
2022/01/12 11:18:38;;;;;;;19.95;15.52;;;;;;;;;;5023422;28;20032;-67
2022/01/12 11:21:36;;;;;;;18.38;15.30;;;;;;;;;;4999128;28;20033;-69
2022/01/12 11:24:24;;;;;;;19.05;16.45;;;;;;;;;;5024250;28;20071;-68
2022/01/12 11:27:19;;;;;;;19.63;16.77;;;;;;;;;;5024294;28;20065;-66
2022/01/12 11:30:04;;;;;;;22.20;17.55;;;;;;;;;;5043965;28;20076;-67
2022/01/12 11:32:56;;;;;;;20.63;17.05;;;;;;;;;;5036969;28;20075;-66
2022/01/12 11:35:43;;;;;;;18.88;14.23;;;;;;;;;;5037582;28;20021;-68
2022/01/12 11:38:30;;;;;;;1999.90;999.90;;;;;;;;;;5028757;28;20061;-75
2022/01/12 11:41:26;;;;;;;1999.90;999.90;;;;;;;;;;5020816;28;20041;-63
2022/01/12 11:44:12;;;;;;;37.42;34.72;;;;;;;;;;5022435;28;20311;-63
2022/01/12 11:47:01;;;;;;;21.52;15.80;;;;;;;;;;4996188;28;20025;-64
2022/01/12 11:49:47;;;;;;;20.15;11.98;;;;;;;;;;5011010;28;20030;-64
2022/01/12 11:52:35;;;;;;;17.10;12.27;;;;;;;;;;5005538;28;20052;-62
2022/01/12 11:55:21;;;;;;;21.65;11.40;;;;;;;;;;5013992;28;20116;-65
2022/01/12 11:58:15;;;;;;;21.52;11.65;;;;;;;;;;5017018;28;20124;-71
2022/01/12 12:01:01;;;;;;;559.33;306.10;;;;;;;;;;5016499;28;20365;-66
2022/01/12 12:03:54;;;;;;;1999.90;999.90;;;;;;;;;;5024990;28;20033;-67
2022/01/12 12:06:41;;;;;;;1999.90;999.90;;;;;;;;;;5015623;28;20038;-69
2022/01/12 12:09:34;;;;;;;1999.90;999.90;;;;;;;;;;5010486;28;20036;-68
2022/01/12 12:12:21;;;;;;;1999.90;999.90;;;;;;;;;;5026677;28;20060;-69
2022/01/12 12:15:07;;;;;;;30.13;28.00;;;;;;;;;;5019915;28;20028;-62
2022/01/12 12:17:53;;;;;;;15.27;9.77;;;;;;;;;;5018687;28;20105;-71
2022/01/12 12:20:39;;;;;;;17.33;10.43;;;;;;;;;;5019417;28;20455;-69
2022/01/12 12:23:28;;;;;;;16.02;10.70;;;;;;;;;;5011099;28;20033;-72
2022/01/12 12:26:15;;;;;;;16.45;10.88;;;;;;;;;;5014144;28;20654;-73
2022/01/12 12:29:00;;;;;;;13.60;10.50;;;;;;;;;;5027008;28;20112;-73
2022/01/12 12:31:47;;;;;;;14.77;9.57;;;;;;;;;;5029671;28;20075;-73
2022/01/12 12:34:34;;;;;;;13.70;9.35;;;;;;;;;;5019695;28;20576;-69
2022/01/12 12:37:19;;;;;;;18.27;9.43;;;;;;;;;;5033366;28;20040;-66
2022/01/12 12:40:11;;;;;;;14.10;9.35;;;;;;;;;;5036916;28;20033;-64
2022/01/12 12:43:01;;;;;;;14.32;8.13;;;;;;;;;;5036293;28;20120;-66
2022/01/12 12:45:54;;;;;;;12.35;8.20;;;;;;;;;;5036247;28;20153;-64
2022/01/12 12:48:43;;;;;;;13.93;9.07;;;;;;;;;;5015903;28;20125;-64
2022/01/12 12:51:28;;;;;;;15.35;9.00;;;;;;;;;;5019775;28;20025;-64
2022/01/12 12:54:14;;;;;;;12.88;9.40;;;;;;;;;;5013266;28;20032;-61
2022/01/12 12:57:06;;;;;;;15.57;9.68;;;;;;;;;;5014458;28;20028;-67
2022/01/12 12:59:52;;;;;;;17.23;9.68;;;;;;;;;;5014481;28;20388;-69
2022/01/12 13:02:38;;;;;;;15.10;10.27;;;;;;;;;;5020957;28;20060;-70
2022/01/12 13:05:24;;;;;;;15.00;10.07;;;;;;;;;;5012088;28;20048;-68
2022/01/12 13:08:10;;;;;;;20.17;9.27;;;;;;;;;;5017518;28;20037;-66
2022/01/12 13:10:56;;;;;;;15.55;10.00;;;;;;;;;;5018224;28;20030;-65
2022/01/12 13:13:41;;;;;;;15.60;10.43;;;;;;;;;;5015462;28;20028;-66
2022/01/12 13:16:27;;;;;;;15.45;9.60;;;;;;;;;;5014424;28;20032;-67
2022/01/12 13:19:33;;;;;;;15.77;11.70;;;;;;;;;;5027744;28;20036;-67
2022/01/12 13:22:30;;;;;;;17.80;10.90;;;;;;;;;;5017923;28;20048;-66
2022/01/12 13:25:16;;;;;;;17.33;10.80;;;;;;;;;;5014755;28;20056;-63
2022/01/12 13:28:01;;;;;;;18.27;10.75;;;;;;;;;;4989770;28;20052;-65
2022/01/12 13:31:03;;;;;;;16.05;11.52;;;;;;;;;;4999397;28;20442;-74
2022/01/12 13:33:51;;;;;;;14.65;10.88;;;;;;;;;;5025758;28;20064;-65
2022/01/12 13:36:36;;;;;;;17.02;12.50;;;;;;;;;;5014361;28;20065;-65
2022/01/12 13:39:21;;;;;;;19.17;12.30;;;;;;;;;;5023779;28;20113;-63
2022/01/12 13:42:07;;;;;;;23.33;11.57;;;;;;;;;;5039369;28;20048;-64
2022/01/12 13:45:07;;;;;;;17.48;11.95;;;;;;;;;;5038229;28;20026;-63
2022/01/12 13:47:54;;;;;;;19.95;11.73;;;;;;;;;;5035470;28;20032;-66
2022/01/12 13:50:41;;;;;;;17.00;11.60;;;;;;;;;;5027449;28;20124;-64
2022/01/12 13:53:33;;;;;;;19.17;12.05;;;;;;;;;;5039003;28;20059;-66
2022/01/12 13:56:18;;;;;;;18.08;12.13;;;;;;;;;;5009428;28;20535;-63
2022/01/12 13:59:05;;;;;;;18.13;11.68;;;;;;;;;;5004786;28;20071;-65
2022/01/12 14:01:50;;;;;;;20.15;12.45;;;;;;;;;;5026461;28;20648;-65
2022/01/12 14:04:39;;;;;;;18.17;11.77;;;;;;;;;;5004426;28;20064;-74
2022/01/12 14:07:25;;;;;;;17.77;11.10;;;;;;;;;;5029404;28;20029;-73
2022/01/12 14:10:10;;;;;;;16.70;11.93;;;;;;;;;;5017885;28;20400;-74
2022/01/12 14:12:56;;;;;;;24.55;12.23;;;;;;;;;;5031030;28;20055;-71
2022/01/12 14:15:43;;;;;;;17.52;11.82;;;;;;;;;;5004294;28;20411;-73
2022/01/12 14:18:29;;;;;;;18.58;12.23;;;;;;;;;;5022177;28;20017;-74
2022/01/12 14:21:19;;;;;;;17.88;11.32;;;;;;;;;;5025963;28;20362;-73
2022/01/12 14:24:05;;;;;;;19.67;13.02;;;;;;;;;;5014600;28;20033;-73
2022/01/12 14:26:51;;;;;;;18.95;12.43;;;;;;;;;;5036007;28;20045;-67
2022/01/12 14:29:36;;;;;;;19.08;12.43;;;;;;;;;;5040150;28;20039;-63
2022/01/12 14:32:22;;;;;;;16.45;11.32;;;;;;;;;;5005549;28;20025;-63
2022/01/12 14:35:08;;;;;;;18.60;12.27;;;;;;;;;;5014796;28;20175;-65
2022/01/12 14:37:54;;;;;;;15.80;11.45;;;;;;;;;;5034179;28;20025;-66
2022/01/12 14:40:39;;;;;;;16.08;11.55;;;;;;;;;;5031134;28;20032;-62
2022/01/12 14:43:29;;;;;;;17.10;11.00;;;;;;;;;;5032386;28;20155;-74
2022/01/12 14:46:14;;;;;;;;;;;;;;;;;;5010002;28;20067;-71
2022/01/12 14:48:59;;;;;;;17.70;12.05;;;;;;;;;;5016222;28;20377;-71
2022/01/12 14:51:45;;;;;;;21.52;12.25;;;;;;;;;;5024696;28;20063;-70
2022/01/12 14:54:30;;;;;;;18.10;11.18;;;;;;;;;;5021992;28;20038;-70
2022/01/12 14:57:15;;;;;;;18.95;11.88;;;;;;;;;;5009064;28;20018;-70
2022/01/12 15:00:02;;;;;;;19.27;12.05;;;;;;;;;;5024831;28;20448;-76
2022/01/12 15:02:48;;;;;;;19.50;12.90;;;;;;;;;;5038501;28;20030;-72
2022/01/12 15:05:34;;;;;;;18.35;12.38;;;;;;;;;;5001680;28;20423;-71
2022/01/12 15:08:20;;;;;;;19.98;13.05;;;;;;;;;;5020798;28;20041;-70
2022/01/12 15:11:05;;;;;;;19.17;12.27;;;;;;;;;;5016051;28;20675;-68
2022/01/12 15:13:57;;;;;;;18.23;11.75;;;;;;;;;;5016238;28;20137;-69
2022/01/12 15:16:42;;;;;;;24.33;12.80;;;;;;;;;;5021688;28;20530;-69
2022/01/12 15:19:28;;;;;;;19.45;12.70;;;;;;;;;;5002316;28;20120;-70
2022/01/12 15:22:13;;;;;;;17.98;11.82;;;;;;;;;;5008706;28;20371;-63
2022/01/12 15:24:58;;;;;;;19.83;13.32;;;;;;;;;;5016425;28;20041;-64
2022/01/12 15:27:44;;;;;;;16.10;12.40;;;;;;;;;;5014111;28;20037;-65
2022/01/12 15:30:30;;;;;;;21.40;12.75;;;;;;;;;;5001643;28;20080;-64
2022/01/12 15:33:15;;;;;;;21.70;12.73;;;;;;;;;;5013967;28;20493;-64
2022/01/12 15:36:01;;;;;;;17.42;11.93;;;;;;;;;;5014401;28;20033;-68
2022/01/12 15:38:46;;;;;;;21.52;12.10;;;;;;;;;;5011464;28;20029;-64
2022/01/12 15:41:31;;;;;;;16.45;11.98;;;;;;;;;;5025716;28;20080;-64
2022/01/12 15:44:16;;;;;;;20.25;12.57;;;;;;;;;;5011462;28;20472;-63
2022/01/12 15:47:02;;;;;;;20.90;13.57;;;;;;;;;;5012598;28;20795;-66
2022/01/12 15:49:47;;;;;;;20.05;13.52;;;;;;;;;;5026723;28;20029;-63
2022/01/12 15:52:33;;;;;;;21.60;13.32;;;;;;;;;;5034422;28;20040;-62
2022/01/12 15:55:18;;;;;;;20.52;12.82;;;;;;;;;;5014670;28;20532;-71
2022/01/12 15:58:03;;;;;;;20.58;12.40;;;;;;;;;;5018801;28;20080;-70
2022/01/12 16:00:49;;;;;;;18.15;13.15;;;;;;;;;;5028914;28;20025;-64
2022/01/12 16:03:34;;;;;;;20.67;13.43;;;;;;;;;;5022995;28;20029;-64
2022/01/12 16:06:19;;;;;;;18.33;13.80;;;;;;;;;;5039574;28;20033;-63
2022/01/12 16:09:05;;;;;;;17.25;12.13;;;;;;;;;;5037123;28;20024;-64
2022/01/12 16:11:50;;;;;;;20.50;12.85;;;;;;;;;;5031566;28;20025;-66
2022/01/12 16:14:36;;;;;;;19.40;12.05;;;;;;;;;;5011927;28;20409;-70
2022/01/12 16:17:21;;;;;;;17.63;12.45;;;;;;;;;;5018457;28;20029;-62
2022/01/12 16:20:07;;;;;;;19.58;12.35;;;;;;;;;;4999514;28;20037;-64
2022/01/12 16:22:53;;;;;;;19.77;12.88;;;;;;;;;;5019267;28;20075;-66
2022/01/12 16:25:39;;;;;;;20.77;12.38;;;;;;;;;;5014794;28;20132;-65
2022/01/12 16:28:25;;;;;;;20.85;13.77;;;;;;;;;;5004948;28;20029;-63
2022/01/12 16:31:21;;;;;;;19.30;13.65;;;;;;;;;;5013765;28;20104;-64
2022/01/12 16:34:08;;;;;;;23.05;13.30;;;;;;;;;;5019492;28;20484;-67
2022/01/12 16:36:54;;;;;;;17.38;12.35;;;;;;;;;;5038261;28;20375;-67
2022/01/12 16:39:39;;;;;;;17.13;11.82;;;;;;;;;;5022134;28;20032;-66
2022/01/12 16:42:25;;;;;;;20.30;13.80;;;;;;;;;;5008487;28;20041;-69
2022/01/12 16:45:10;;;;;;;22.77;14.52;;;;;;;;;;5011339;28;20359;-70
2022/01/12 16:47:55;;;;;;;20.27;12.00;;;;;;;;;;5002282;28;20419;-69
2022/01/12 16:50:41;;;;;;;19.90;13.77;;;;;;;;;;5013797;28;20033;-73
2022/01/12 16:53:26;;;;;;;19.50;12.30;;;;;;;;;;5002600;28;20026;-72
2022/01/12 16:56:15;;;;;;;22.92;13.75;;;;;;;;;;5028115;28;20029;-65
2022/01/12 16:59:00;;;;;;;22.67;14.27;;;;;;;;;;5025265;28;20026;-67
2022/01/12 17:01:46;;;;;;;18.23;12.60;;;;;;;;;;5029538;28;20036;-64
2022/01/12 17:04:31;;;;;;;20.50;14.40;;;;;;;;;;5014645;28;20033;-64
2022/01/12 17:07:17;;;;;;;22.30;14.15;;;;;;;;;;5028770;28;20116;-64
2022/01/12 17:10:06;;;;;;;20.23;13.35;;;;;;;;;;5027331;28;20068;-71
2022/01/12 17:12:53;;;;;;;20.10;13.65;;;;;;;;;;5012021;28;20451;-69
2022/01/12 17:15:42;;;;;;;20.05;14.23;;;;;;;;;;5027105;28;20098;-68
2022/01/12 17:18:48;;;;;;;21.90;15.18;;;;;;;;;;5035282;28;20508;-68
2022/01/12 17:21:34;;;;;;;22.08;14.15;;;;;;;;;;5014867;28;20099;-70
2022/01/12 17:24:25;;;;;;;24.17;15.20;;;;;;;;;;5010929;28;20053;-67
2022/01/12 17:27:12;;;;;;;21.17;14.00;;;;;;;;;;5029005;28;20037;-73
2022/01/12 17:29:57;;;;;;;19.25;13.75;;;;;;;;;;5030337;28;20496;-73
2022/01/12 17:32:43;;;;;;;20.67;12.50;;;;;;;;;;5032906;28;20440;-74
2022/01/12 17:35:28;;;;;;;21.23;14.82;;;;;;;;;;5029344;28;20029;-73